Time;durP1;ratioP1;P1;durP2;ratioP2;P2;SDS_P1;SDS_P2;PMS_P1;PMS_P2;Temp;Humidity;BMP_temperature;BMP_pressure;BME280_temperature;BME280_humidity;BME280_pressure;Samples;Min_cycle;Max_cycle;Signal;HPM_P1;HPM_P2
2023/10/09 00:01:13;;;;;;;14.18;3.90;;;;;;;17.47;96.95;95153.16;4905735;29;20441;-82
2023/10/09 00:03:43;;;;;;;17.20;3.45;;;;;;;17.43;97.13;95152.81;4888721;29;20455;-80
2023/10/09 00:06:15;;;;;;;13.25;3.40;;;;;;;17.46;96.84;95148.97;4889168;29;20036;-86
2023/10/09 00:08:44;;;;;;;9.40;3.28;;;;;;;17.44;96.59;95153.59;4910302;29;20032;-85
2023/10/09 00:11:13;;;;;;;11.73;3.88;;;;;;;17.45;96.40;95163.06;4911448;29;20028;-80
2023/10/09 00:13:48;;;;;;;14.13;3.58;;;;;;;17.40;96.48;95151.38;4906803;29;20046;-83
2023/10/09 00:16:32;;;;;;;13.18;3.70;;;;;;;17.34;96.54;95157.44;4911074;29;20040;-83
2023/10/09 00:19:13;;;;;;;14.68;3.90;;;;;;;17.20;96.96;95144.63;4912039;29;20035;-80
2023/10/09 00:21:39;;;;;;;17.77;3.42;;;;;;;17.14;97.60;95156.72;4910017;29;20092;-81
2023/10/09 00:24:13;;;;;;;11.88;3.72;;;;;;;17.15;98.20;95166.16;4907483;29;20036;-83
2023/10/09 00:26:47;;;;;;;13.98;3.28;;;;;;;17.03;98.23;95157.34;4910601;29;20020;-79
2023/10/09 00:29:15;;;;;;;9.40;3.28;;;;;;;16.97;98.61;95152.94;4915332;29;20537;-80
2023/10/09 00:31:50;;;;;;;13.73;3.75;;;;;;;17.00;98.89;95143.88;4917201;29;20028;-83
2023/10/09 00:34:19;;;;;;;15.18;3.85;;;;;;;16.98;98.97;95151.94;4917435;29;20051;-82
2023/10/09 00:36:52;;;;;;;12.60;4.22;;;;;;;16.99;98.75;95155.34;4918246;29;20032;-84
2023/10/09 00:39:33;;;;;;;8.77;3.10;;;;;;;17.04;98.89;95158.16;4903698;29;20028;-85
2023/10/09 00:42:00;;;;;;;10.45;3.72;;;;;;;17.05;98.33;95149.31;4918142;29;20091;-84
2023/10/09 00:44:37;;;;;;;9.85;3.40;;;;;;;17.01;98.34;95143.69;4911710;29;20030;-80
2023/10/09 00:47:22;;;;;;;7.13;3.22;;;;;;;17.02;97.99;95157.53;4909952;29;20088;-82
2023/10/09 00:49:47;;;;;;;11.25;3.45;;;;;;;16.95;97.95;95169.84;4905684;29;20044;-78
2023/10/09 00:52:22;;;;;;;9.30;3.25;;;;;;;16.90;97.64;95167.03;4914980;29;20513;-81
2023/10/09 00:54:51;;;;;;;8.73;2.67;;;;;;;16.90;97.59;95167.84;4918741;29;20082;-83
2023/10/09 00:57:24;;;;;;;6.70;2.50;;;;;;;16.86;97.52;95162.22;4895385;29;20080;-85
2023/10/09 00:59:59;;;;;;;12.73;2.80;;;;;;;16.90;97.31;95165.22;4918975;29;20027;-80
2023/10/09 01:02:35;;;;;;;9.13;2.88;;;;;;;16.96;96.96;95166.22;4907447;29;20514;-82
2023/10/09 01:05:11;;;;;;;10.30;3.55;;;;;;;16.99;96.88;95152.72;4918812;29;20036;-77
2023/10/09 01:07:39;;;;;;;9.90;3.08;;;;;;;16.99;96.80;95161.38;4915004;29;20106;-81
2023/10/09 01:10:09;;;;;;;8.05;2.88;;;;;;;16.98;96.70;95178.09;4903699;29;20046;-79
2023/10/09 01:12:34;;;;;;;;;;;;;;;17.04;95.97;95186.94;4904958;29;20521;-78
2023/10/09 01:15:00;;;;;;;10.80;3.35;;;;;;;17.04;95.62;95179.91;4916736;29;19938;-78
2023/10/09 01:17:45;;;;;;;7.97;2.72;;;;;;;17.02;95.56;95184.53;4911032;29;20035;-79
2023/10/09 01:20:16;;;;;;;9.52;3.30;;;;;;;17.08;95.47;95181.09;4910757;29;20024;-82
2023/10/09 01:22:43;;;;;;;7.68;2.28;;;;;;;17.05;95.11;95183.34;4911585;29;20039;-87
2023/10/09 01:25:09;;;;;;;6.65;2.53;;;;;;;17.06;95.08;95184.91;4916427;29;20038;-79
2023/10/09 01:27:36;;;;;;;6.43;2.50;;;;;;;17.05;94.38;95191.97;4911500;29;20114;-79
2023/10/09 01:30:02;;;;;;;11.82;2.15;;;;;;;17.03;94.03;95208.88;4918351;29;21078;-80
2023/10/09 01:32:27;;;;;;;7.95;2.33;;;;;;;17.00;93.64;95220.56;4909839;29;20059;-81
2023/10/09 01:34:54;;;;;;;7.68;2.13;;;;;;;17.01;93.48;95224.00;4917898;29;20036;-79
2023/10/09 01:37:28;;;;;;;8.40;2.67;;;;;;;17.01;93.70;95224.81;4916940;29;20420;-77
2023/10/09 01:39:59;;;;;;;7.65;2.38;;;;;;;17.01;93.23;95221.38;4909571;29;20035;-80
2023/10/09 01:42:33;;;;;;;7.32;2.33;;;;;;;16.98;93.17;95209.50;4902959;29;20112;-77
2023/10/09 01:45:09;;;;;;;4.80;2.58;;;;;;;16.89;93.58;95210.72;4914160;29;20032;-77
2023/10/09 01:47:37;;;;;;;9.13;2.40;;;;;;;16.91;93.14;95216.56;4908066;29;20024;-81
2023/10/09 01:50:19;;;;;;;9.73;2.13;;;;;;;16.79;92.93;95212.97;4912155;29;20420;-79
2023/10/09 01:52:45;;;;;;;4.30;2.38;;;;;;;16.73;92.67;95232.84;4920945;29;20038;-79
2023/10/09 01:55:15;;;;;;;11.05;2.25;;;;;;;16.75;92.79;95240.50;4917990;29;20038;-79
2023/10/09 01:57:44;;;;;;;3.15;2.05;;;;;;;16.64;92.55;95239.28;4921721;29;20428;-78
2023/10/09 02:00:16;;;;;;;3.00;2.17;;;;;;;16.59;92.69;95235.69;4920497;29;20035;-85
2023/10/09 02:02:45;;;;;;;6.40;2.03;;;;;;;16.57;92.25;95235.06;4892161;29;20055;-81
2023/10/09 02:05:24;;;;;;;5.78;1.92;;;;;;;16.50;92.17;95239.47;4918960;29;20137;-83
2023/10/09 02:07:53;;;;;;;7.80;1.88;;;;;;;16.50;91.95;95242.09;4902804;29;20107;-77
2023/10/09 02:10:31;;;;;;;5.20;1.95;;;;;;;16.38;92.24;95246.28;4921577;29;20032;-78
2023/10/09 02:12:59;;;;;;;7.30;2.00;;;;;;;16.38;92.32;95259.34;4906342;29;20036;-79
2023/10/09 02:18:39;;;;;;;9.13;2.25;;;;;;;16.29;91.78;95267.38;4911301;29;20414;-77
2023/10/09 02:26:19;;;;;;;3.42;1.73;;;;;;;16.21;92.34;95272.78;4915019;29;20418;-79
2023/10/09 02:28:52;;;;;;;9.40;2.20;;;;;;;16.15;92.46;95272.78;4891843;29;20030;-79
2023/10/09 02:31:22;;;;;;;4.53;2.03;;;;;;;16.14;92.42;95269.38;4905751;29;20757;-79
2023/10/09 02:33:50;;;;;;;3.63;1.70;;;;;;;16.07;92.63;95273.75;4909569;29;20028;-78
2023/10/09 02:36:15;;;;;;;6.28;1.70;;;;;;;15.98;92.56;95285.41;4915461;29;20040;-79
2023/10/09 02:38:42;;;;;;;3.45;1.77;;;;;;;15.90;93.09;95282.94;4920703;29;20034;-81
2023/10/09 02:43:47;;;;;;;8.60;2.00;;;;;;;15.83;92.85;95289.94;4924016;29;20043;-80
2023/10/09 02:46:46;;;;;;;5.43;2.33;;;;;;;15.82;93.31;95289.16;4913596;29;20032;-80
2023/10/09 02:49:06;;;;;;;4.13;1.92;;;;;;;15.75;92.99;95296.16;4920303;29;20388;-78
2023/10/09 02:51:41;;;;;;;5.22;1.80;;;;;;;15.73;93.07;95297.34;4915192;29;20122;-85
2023/10/09 02:54:07;;;;;;;4.30;1.85;;;;;;;15.73;93.02;95302.56;4896188;29;20059;-90
2023/10/09 02:56:42;;;;;;;8.20;1.95;;;;;;;15.68;93.09;95310.97;4906403;29;20039;-88
2023/10/09 02:59:07;;;;;;;7.22;2.10;;;;;;;15.59;93.71;95311.31;4907454;29;20032;-81
2023/10/09 03:01:39;;;;;;;7.80;2.17;;;;;;;15.67;93.52;95318.97;4919695;29;20064;-87
2023/10/09 03:04:06;;;;;;;6.65;1.80;;;;;;;15.59;94.04;95317.34;4922738;29;20048;-88
2023/10/09 03:06:35;;;;;;;5.20;2.05;;;;;;;15.49;94.56;95321.28;4921987;29;20028;-88
2023/10/09 03:09:01;;;;;;;5.93;2.10;;;;;;;15.51;94.21;95319.31;4916323;29;20098;-89
2023/10/09 03:11:27;;;;;;;5.72;2.13;;;;;;;15.41;94.65;95314.38;4910982;29;20458;-82
2023/10/09 03:13:53;;;;;;;4.82;1.92;;;;;;;15.24;95.10;95321.72;4909050;29;20024;-89
2023/10/09 03:16:21;;;;;;;9.13;1.80;;;;;;;15.24;95.03;95324.31;4920380;29;20545;-80
2023/10/09 03:18:52;;;;;;;5.70;1.73;;;;;;;15.12;95.22;95332.88;4912028;29;20032;-84
2023/10/09 03:21:17;;;;;;;6.07;1.50;;;;;;;15.02;95.19;95330.59;4908361;29;20028;-84
2023/10/09 03:23:50;;;;;;;9.75;2.00;;;;;;;15.15;94.54;95335.09;4904825;29;20468;-83
2023/10/09 03:26:17;;;;;;;3.70;1.67;;;;;;;15.17;94.28;95344.34;4920598;29;20032;-82
2023/10/09 03:28:45;;;;;;;6.43;1.40;;;;;;;15.07;94.42;95340.44;4919826;29;20031;-82
2023/10/09 03:31:11;;;;;;;11.55;2.25;;;;;;;14.96;94.59;95351.41;4914315;29;20553;-88
2023/10/09 03:33:36;;;;;;;5.60;1.25;;;;;;;14.82;94.65;95350.47;4923834;29;20398;-79
2023/10/09 03:36:02;;;;;;;5.47;1.40;;;;;;;14.70;95.08;95354.56;4913978;29;20020;-84
2023/10/09 03:38:34;;;;;;;5.22;1.10;;;;;;;14.66;95.30;95351.53;4911878;29;20044;-84
2023/10/09 03:41:05;;;;;;;4.10;1.30;;;;;;;14.61;95.07;95360.88;4912241;29;20035;-85
2023/10/09 03:43:34;;;;;;;3.88;1.27;;;;;;;14.56;95.41;95358.84;4907476;29;20123;-84
2023/10/09 03:46:03;;;;;;;4.05;1.20;;;;;;;14.57;95.74;95362.25;4905959;29;20031;-79
2023/10/09 03:48:35;;;;;;;2.78;1.30;;;;;;;14.54;95.34;95368.66;4916289;29;20498;-85
2023/10/09 03:51:08;;;;;;;7.00;1.40;;;;;;;14.39;95.92;95369.66;4920459;29;20077;-83
2023/10/09 03:53:39;;;;;;;3.13;1.20;;;;;;;14.32;96.22;95361.72;4927508;29;20068;-84
2023/10/09 03:56:11;;;;;;;2.75;1.10;;;;;;;14.31;95.47;95373.16;4935217;29;20024;-81
2023/10/09 03:58:39;;;;;;;4.50;1.20;;;;;;;14.29;95.65;95375.13;4922207;29;20044;-87
2023/10/09 04:03:54;;;;;;;2.53;1.00;;;;;;;14.18;96.30;95379.03;4919870;29;20079;-81
2023/10/09 04:06:21;;;;;;;3.08;1.00;;;;;;;14.07;96.77;95384.69;4920646;29;20036;-80
2023/10/09 04:08:51;;;;;;;4.20;1.05;;;;;;;14.07;96.86;95389.91;4914554;29;20035;-79
2023/10/09 04:11:16;;;;;;;2.75;1.30;;;;;;;13.94;97.75;95386.31;4919763;29;20032;-76
2023/10/09 04:13:46;;;;;;;6.00;1.13;;;;;;;14.04;96.93;95390.25;4907591;29;20051;-82
2023/10/09 04:18:59;;;;;;;4.25;1.05;;;;;;;13.90;97.31;95391.06;4919251;29;20043;-81
2023/10/09 04:21:43;;;;;;;4.00;1.13;;;;;;;13.71;98.39;95389.00;4921402;29;20032;-77
2023/10/09 04:26:44;;;;;;;2.28;1.00;;;;;;;13.67;98.61;95395.56;4924594;29;20036;-80
2023/10/09 04:29:10;;;;;;;7.70;1.48;;;;;;;13.60;98.65;95392.88;4928902;29;20012;-80
2023/10/09 04:31:37;;;;;;;5.70;1.10;;;;;;;13.57;98.59;95401.03;4920270;29;20028;-83
2023/10/09 04:36:51;;;;;;;5.70;1.10;;;;;;;13.70;98.06;95413.44;4994304;23;20512;-82
2023/10/09 04:44:59;;;;;;;4.60;1.00;;;;;;;13.62;97.33;95392.66;4931832;29;20042;-80
2023/10/09 04:47:35;;;;;;;6.28;0.80;;;;;;;13.58;98.07;95402.63;4906145;29;20505;-80
2023/10/09 04:50:03;;;;;;;2.08;0.80;;;;;;;13.68;97.41;95404.97;4906292;29;20032;-86
2023/10/09 05:02:57;;;;;;;6.45;1.00;;;;;;;13.69;97.02;95419.63;4906826;29;20498;-80
2023/10/09 05:08:33;;;;;;;4.03;1.20;;;;;;;13.79;96.74;95425.38;4906972;29;20540;-86
2023/10/09 05:13:57;;;;;;;3.20;1.17;;;;;;;13.89;95.32;95425.91;4904547;29;20036;-83
2023/10/09 05:16:19;;;;;;;3.75;1.00;;;;;;;13.89;95.21;95425.91;4906555;29;20075;-86
2023/10/09 05:19:06;;;;;;;3.10;1.10;;;;;;;13.91;94.87;95433.53;4905046;29;20546;-84
2023/10/09 05:21:37;;;;;;;2.42;0.90;;;;;;;13.97;94.47;95444.03;4919279;29;20042;-87
2023/10/09 05:29:19;;;;;;;5.40;1.20;;;;;;;15.71;85.02;95441.16;4927079;29;20458;-82
2023/10/09 05:34:34;;;;;;;6.63;1.20;;;;;;;16.84;82.47;95438.16;4927880;29;20600;-79
2023/10/09 05:50:34;;;;;;;7.22;1.40;;;;;;;15.28;86.17;95470.91;4940383;29;20252;-84
2023/10/09 05:53:34;;;;;;;3.33;1.52;;;;;;;15.34;86.57;95482.41;4927351;29;20609;-86
2023/10/09 06:04:18;;;;;;;4.07;1.10;;;;;;;17.27;74.90;95497.03;4939161;29;20038;-84
2023/10/09 06:06:45;;;;;;;1.92;0.88;;;;;;;17.60;72.62;95507.59;4926878;29;20033;-82
2023/10/09 06:11:42;;;;;;;5.95;1.45;;;;;;;17.71;72.02;95514.88;4942117;29;20067;-83
2023/10/09 06:19:12;;;;;;;2.20;0.82;;;;;;;22.50;50.94;95508.25;4926477;29;20047;-84
2023/10/09 06:24:23;;;;;;;4.95;1.08;;;;;;;21.88;51.02;95517.59;4921615;29;20043;-83
2023/10/09 06:35:15;;;;;;;1.33;0.77;;;;;;;27.12;37.48;95513.19;4913022;29;20031;-84
2023/10/09 06:48:44;;;;;;;2.47;0.88;;;;;;;27.87;34.30;95541.09;4929601;29;20058;-81
2023/10/09 06:58:57;;;;;;;2.03;0.80;;;;;;;29.35;31.92;95537.28;4928727;29;20036;-83
2023/10/09 07:01:39;;;;;;;1.48;0.90;;;;;;;29.68;30.79;95533.88;4919292;29;20035;-79
2023/10/09 07:04:45;;;;;;;3.70;0.90;;;;;;;29.33;32.08;95531.41;4922633;29;20408;-79
2023/10/09 07:06:56;;;;;;;1.92;1.00;;;;;;;29.29;31.25;95531.94;4912867;29;20047;-80
2023/10/09 07:09:22;;;;;;;3.08;1.02;;;;;;;27.96;33.28;95536.88;4925570;29;20031;-85
2023/10/09 07:16:59;;;;;;;3.38;1.10;;;;;;;29.33;30.96;95542.06;4925785;29;19918;-80
2023/10/09 07:24:57;;;;;;;2.00;0.90;;;;;;;29.41;30.21;95539.63;4915672;29;20126;-83
2023/10/09 07:27:48;;;;;;;2.00;0.70;;;;;;;29.20;30.03;95538.91;4915418;29;20046;-80
2023/10/09 07:32:55;;;;;;;1.48;0.80;;;;;;;30.46;29.28;95537.41;4925279;29;20035;-81
2023/10/09 07:38:21;;;;;;;2.28;0.80;;;;;;;30.11;29.47;95529.63;4906325;29;20437;-81
2023/10/09 07:48:56;;;;;;;1.40;1.00;;;;;;;26.70;32.44;95537.16;4908958;29;20047;-80
2023/10/09 07:51:23;;;;;;;1.17;0.85;;;;;;;22.52;37.72;95527.31;4915729;29;20168;-85
2023/10/09 07:54:06;;;;;;;2.42;1.10;;;;;;;22.06;40.08;95524.63;4918844;29;20031;-80
2023/10/09 07:56:43;;;;;;;2.88;1.00;;;;;;;21.94;40.84;95529.09;4925336;29;20032;-83
2023/10/09 07:59:11;;;;;;;1.80;0.90;;;;;;;24.00;37.66;95534.47;4934995;29;20035;-79
2023/10/09 08:02:02;;;;;;;4.40;0.93;;;;;;;26.70;32.77;95534.50;4916348;29;20068;-80
2023/10/09 08:04:37;;;;;;;2.15;1.17;;;;;;;26.94;32.19;95534.13;4914217;29;20498;-83
2023/10/09 08:07:19;;;;;;;2.95;1.10;;;;;;;28.10;30.11;95535.31;4906598;29;20110;-79
2023/10/09 08:11:34;;;;;;;1.88;0.98;;;;;;;27.90;30.44;95539.81;4919065;29;20032;-80
2023/10/09 08:13:49;;;;;;;1.42;0.77;;;;;;;28.00;30.23;95537.16;4913715;29;20513;-81
2023/10/09 08:15:51;;;;;;;2.75;0.90;;;;;;;28.01;29.91;95533.41;4908602;29;20051;-86
2023/10/09 08:18:13;;;;;;;2.40;0.80;;;;;;;28.26;28.51;95536.91;4913024;29;20035;-85
2023/10/09 08:21:19;;;;;;;2.45;0.82;;;;;;;28.26;29.26;95536.09;4921770;29;20059;-79
2023/10/09 18:03:28;;;;;;;33.05;11.25;;;;;;;12.68;58.38;95058.69;4831469;29;20554;-76
2023/10/09 18:05:54;;;;;;;;;;;;;;;12.73;58.25;95052.94;4854823;29;20120;-76
2023/10/09 18:08:19;;;;;;;26.92;4.85;;;;;;;12.59;58.52;95040.75;4859067;29;20313;-76
2023/10/09 18:10:45;;;;;;;10.38;3.25;;;;;;;12.68;57.43;95039.69;4842056;29;20029;-76
2023/10/09 18:13:16;;;;;;;15.20;3.35;;;;;;;12.74;58.00;95040.75;4829204;29;20025;-76
2023/10/09 18:15:46;;;;;;;8.77;3.45;;;;;;;12.81;56.74;95045.03;4831479;29;20093;-76
2023/10/09 18:18:20;;;;;;;9.35;2.35;;;;;;;13.07;55.58;95042.75;4862306;29;20517;-76
2023/10/09 18:20:49;;;;;;;17.95;4.00;;;;;;;12.38;59.69;95046.69;4854819;29;20052;-75
2023/10/09 18:23:18;;;;;;;7.60;2.78;;;;;;;12.37;60.74;95044.28;4852281;29;20037;-75
2023/10/09 18:25:43;;;;;;;5.10;2.60;;;;;;;12.60;59.19;95037.19;4846583;29;20041;-75
2023/10/09 18:28:09;;;;;;;7.63;2.63;;;;;;;12.74;59.70;95030.38;4844773;29;21355;-75
2023/10/09 18:30:39;;;;;;;9.68;2.40;;;;;;;12.52;59.36;95016.53;4842520;29;20026;-75
2023/10/09 18:33:04;;;;;;;9.07;2.97;;;;;;;12.44;60.51;95012.22;4848956;29;20069;-74
2023/10/09 18:35:30;;;;;;;7.43;2.50;;;;;;;12.65;60.90;95003.66;4832041;29;20091;-76
2023/10/09 18:37:59;;;;;;;5.30;3.03;;;;;;;12.71;62.04;95005.56;4878529;29;20042;-77
2023/10/09 18:40:35;;;;;;;10.25;3.40;;;;;;;12.77;62.58;95007.41;4868794;29;20021;-78
2023/10/09 18:43:03;;;;;;;6.85;2.78;;;;;;;12.83;62.15;95013.69;4867480;29;20038;-78
2023/10/09 18:45:33;;;;;;;9.73;2.97;;;;;;;12.83;61.59;95011.88;4869502;29;20115;-78
2023/10/09 18:47:59;;;;;;;6.85;2.63;;;;;;;13.00;61.89;95018.47;4837010;29;20033;-77
2023/10/09 18:50:25;;;;;;;5.80;3.47;;;;;;;13.08;62.32;95018.38;4852855;29;20029;-77
2023/10/09 18:52:51;;;;;;;8.60;4.47;;;;;;;13.05;61.80;95029.13;4848644;29;20039;-78
2023/10/09 18:55:18;;;;;;;8.48;4.40;;;;;;;13.12;62.96;95026.63;4851724;29;20033;-77
2023/10/09 18:57:45;;;;;;;5.53;3.35;;;;;;;13.12;64.08;95024.03;4857340;29;20582;-78
2023/10/09 19:00:12;;;;;;;8.95;3.30;;;;;;;13.18;63.64;95026.69;4834817;29;20037;-77
2023/10/09 19:02:38;;;;;;;11.85;3.88;;;;;;;13.12;63.54;95016.22;4895347;29;20139;-77
2023/10/09 19:05:07;;;;;;;7.75;4.07;;;;;;;13.01;62.90;95033.06;4912112;29;20181;-77
2023/10/09 19:07:34;;;;;;;9.10;4.18;;;;;;;13.04;62.44;95031.91;4892699;29;20163;-77
2023/10/09 19:10:00;;;;;;;5.40;3.40;;;;;;;13.24;62.82;95029.53;4915786;29;20035;-77
2023/10/09 19:12:25;;;;;;;5.75;3.30;;;;;;;13.25;63.23;95031.97;4895852;29;20067;-78
2023/10/09 19:14:53;;;;;;;18.95;4.20;;;;;;;13.24;62.23;95039.94;4906389;29;20082;-77
2023/10/09 19:17:19;;;;;;;11.70;4.22;;;;;;;13.13;62.14;95036.06;4890322;29;20036;-77
2023/10/09 19:19:44;;;;;;;13.50;5.80;;;;;;;13.04;62.23;95042.31;4912779;29;20032;-77
2023/10/09 19:22:10;;;;;;;13.40;5.57;;;;;;;13.03;62.37;95038.91;4912861;29;20044;-77
2023/10/09 19:24:37;;;;;;;15.35;5.30;;;;;;;13.13;62.87;95036.06;4889937;29;20116;-77
2023/10/09 19:27:04;;;;;;;14.60;5.28;;;;;;;13.12;63.20;95043.03;4905946;29;20039;-78
2023/10/09 19:29:31;;;;;;;11.13;4.18;;;;;;;12.95;62.75;95033.81;4891895;29;20059;-78
2023/10/09 19:31:57;;;;;;;8.25;3.20;;;;;;;12.94;62.16;95034.78;4905766;29;20070;-76
2023/10/09 19:34:22;;;;;;;12.02;4.50;;;;;;;12.97;62.51;95034.44;4891145;29;20051;-78
2023/10/09 19:36:48;;;;;;;10.05;4.18;;;;;;;13.02;64.33;95036.50;4920027;29;20059;-77
2023/10/09 19:39:16;;;;;;;11.25;3.95;;;;;;;12.71;65.45;95039.34;4906941;29;20916;-78
2023/10/09 19:41:42;;;;;;;8.47;3.43;;;;;;;12.60;66.71;95045.78;4908377;29;20064;-78
2023/10/09 19:44:07;;;;;;;9.98;3.60;;;;;;;12.54;68.17;95043.13;4906223;29;20824;-77
2023/10/09 19:46:37;;;;;;;6.15;2.55;;;;;;;12.46;67.73;95049.19;4922492;29;20114;-77
2023/10/09 19:49:03;;;;;;;7.95;3.05;;;;;;;12.45;67.96;95028.59;4918258;29;20031;-77
2023/10/09 19:51:31;;;;;;;7.93;2.30;;;;;;;12.55;67.09;95049.94;4906714;29;20153;-76
2023/10/09 19:53:57;;;;;;;8.23;3.03;;;;;;;12.38;67.30;95046.69;4905526;29;20028;-77
2023/10/09 19:56:23;;;;;;;8.00;3.22;;;;;;;12.34;68.36;95049.81;4905529;29;20785;-77
2023/10/09 19:58:51;;;;;;;6.30;2.80;;;;;;;12.23;68.22;95053.69;4890197;29;20080;-76
2023/10/09 20:01:18;;;;;;;9.32;3.22;;;;;;;12.13;68.79;95058.34;4920016;29;20028;-77
2023/10/09 20:03:44;;;;;;;8.60;2.83;;;;;;;11.96;69.80;95060.28;4908210;29;20036;-77
2023/10/09 20:06:10;;;;;;;10.32;3.03;;;;;;;11.87;70.43;95058.72;4920305;29;20598;-76
2023/10/09 20:08:36;;;;;;;13.50;3.72;;;;;;;11.69;70.55;95052.22;4906974;29;20064;-77
2023/10/09 20:11:28;;;;;;;12.60;3.25;;;;;;;11.61;71.07;95055.69;4923233;29;20047;-77
2023/10/09 20:13:54;;;;;;;11.13;3.35;;;;;;;11.79;70.77;95057.97;4912085;29;20127;-76
2023/10/09 20:16:20;;;;;;;11.32;3.47;;;;;;;11.77;69.85;95055.56;4905428;29;20503;-76
2023/10/09 20:18:45;;;;;;;14.30;3.42;;;;;;;11.70;70.18;95059.84;4905658;29;20038;-77
2023/10/09 20:21:11;;;;;;;17.42;3.83;;;;;;;11.50;71.59;95056.06;4906194;29;20028;-75
2023/10/09 20:23:40;;;;;;;12.82;3.63;;;;;;;11.25;74.17;95050.25;4906618;29;20036;-75
2023/10/09 20:26:06;;;;;;;;;;;;;;;11.25;74.58;95055.44;4888695;29;20028;-76
2023/10/09 20:28:36;;;;;;;6.10;3.22;;;;;;;11.23;74.82;95051.41;4899546;29;19923;-75
2023/10/09 20:31:02;;;;;;;12.70;3.55;;;;;;;11.25;75.06;95049.44;4883982;29;20474;-76
2023/10/09 20:33:33;;;;;;;9.63;4.05;;;;;;;11.14;75.39;95049.84;4879295;29;20047;-77
2023/10/09 20:36:15;;;;;;;16.33;3.35;;;;;;;11.40;74.46;95052.91;4903814;29;20036;-76
2023/10/09 20:38:41;;;;;;;7.28;3.53;;;;;;;11.32;74.22;95058.16;4919187;29;20032;-75
2023/10/09 20:41:10;;;;;;;10.27;3.60;;;;;;;11.35;74.48;95060.41;4886538;29;20024;-76
2023/10/09 20:43:36;;;;;;;11.23;3.47;;;;;;;11.45;73.63;95059.19;4888005;29;20039;-76
2023/10/09 20:46:04;;;;;;;10.07;3.63;;;;;;;11.38;73.66;95055.69;4918473;29;20481;-75
2023/10/09 20:48:31;;;;;;;13.85;3.35;;;;;;;11.26;74.80;95061.44;4903837;29;20036;-75
2023/10/09 20:50:58;;;;;;;13.90;3.65;;;;;;;11.15;75.88;95059.22;4888162;29;20091;-75
2023/10/09 20:53:26;;;;;;;13.27;3.78;;;;;;;11.09;76.89;95065.91;4903168;29;20512;-75
2023/10/09 20:55:54;;;;;;;7.07;3.38;;;;;;;11.20;76.65;95067.31;4919262;29;20561;-75
2023/10/09 20:58:23;;;;;;;10.48;3.97;;;;;;;11.23;77.23;95060.00;4916899;29;20066;-75
2023/10/09 21:00:49;;;;;;;10.23;3.58;;;;;;;11.22;77.31;95065.34;4918838;29;20705;-75
2023/10/09 21:03:15;;;;;;;9.68;3.05;;;;;;;11.16;78.46;95077.22;4918450;29;20138;-77
2023/10/09 21:05:41;;;;;;;14.90;3.67;;;;;;;11.11;79.66;95077.72;4887566;29;20399;-75
2023/10/09 21:08:07;;;;;;;9.20;3.75;;;;;;;11.38;78.84;95083.41;4904731;29;20039;-75
2023/10/09 21:10:33;;;;;;;9.65;3.30;;;;;;;11.33;78.67;95083.13;4903457;29;20132;-76
2023/10/09 21:12:58;;;;;;;10.27;3.22;;;;;;;11.18;77.80;95075.25;4904655;29;20033;-75
2023/10/09 21:15:26;;;;;;;14.57;3.78;;;;;;;10.82;79.55;95063.81;4885743;29;20046;-75
2023/10/09 21:17:52;;;;;;;9.88;2.95;;;;;;;10.72;80.12;95058.84;4887846;29;20076;-75
2023/10/09 21:20:18;;;;;;;4.95;3.10;;;;;;;11.01;79.70;95050.44;4902939;29;20032;-75
2023/10/09 21:22:54;;;;;;;13.52;3.13;;;;;;;11.19;79.10;95042.38;4887572;29;20490;-76
2023/10/09 21:25:20;;;;;;;11.05;3.25;;;;;;;11.32;78.02;95029.63;4904586;29;20603;-76
2023/10/09 21:27:49;;;;;;;8.05;3.40;;;;;;;11.40;77.68;95040.75;4901373;29;20028;-76
2023/10/09 21:30:17;;;;;;;;;;;;;;;11.42;78.56;95040.59;4887793;29;20048;-76
2023/10/09 21:32:44;;;;;;;7.95;3.03;;;;;;;11.60;77.44;95049.69;4902614;29;19986;-76
2023/10/09 21:35:17;;;;;;;10.38;2.90;;;;;;;11.55;77.88;95051.19;4903448;29;20029;-75
2023/10/09 21:37:47;;;;;;;10.00;3.53;;;;;;;11.57;77.82;95049.22;4902148;29;20036;-75
2023/10/09 21:40:14;;;;;;;5.30;3.10;;;;;;;11.55;77.85;95053.78;4903638;29;20020;-75
2023/10/09 21:42:41;;;;;;;8.55;3.30;;;;;;;11.32;79.31;95052.97;4902958;29;20044;-75
2023/10/09 21:45:10;;;;;;;8.45;2.88;;;;;;;11.20;78.84;95049.97;4902569;29;20059;-75
2023/10/09 21:47:37;;;;;;;7.40;3.30;;;;;;;11.30;78.25;95047.16;4903500;29;20133;-75
2023/10/09 21:50:03;;;;;;;9.60;2.90;;;;;;;11.58;77.28;95043.06;4885351;29;20032;-75
2023/10/09 21:52:29;;;;;;;8.80;3.17;;;;;;;11.82;77.09;95047.25;4904252;29;20036;-75
2023/10/09 21:54:54;;;;;;;7.22;2.97;;;;;;;11.75;76.79;95046.34;4902971;29;20490;-76
2023/10/09 21:57:19;;;;;;;5.05;2.80;;;;;;;11.73;77.03;95045.72;4903879;29;20870;-76
2023/10/09 21:59:46;;;;;;;8.38;3.35;;;;;;;11.63;77.62;95048.50;4903950;29;20032;-75
2023/10/09 22:02:13;;;;;;;5.65;3.15;;;;;;;11.60;77.61;95051.47;4902392;29;20062;-75
2023/10/09 22:04:40;;;;;;;8.10;3.35;;;;;;;11.59;78.48;95047.28;4904335;29;20036;-75
2023/10/09 22:07:08;;;;;;;6.18;3.05;;;;;;;11.61;78.62;95048.72;4902273;29;20028;-75
2023/10/09 22:09:34;;;;;;;14.50;3.60;;;;;;;11.73;77.94;95046.53;4909415;29;20019;-75
2023/10/09 22:12:00;;;;;;;7.80;2.70;;;;;;;11.93;77.35;95045.06;4911638;29;20036;-75
2023/10/09 22:14:25;;;;;;;9.52;3.35;;;;;;;12.04;78.15;95041.22;4889032;29;20028;-75
2023/10/09 22:16:52;;;;;;;9.18;3.67;;;;;;;12.13;76.82;95045.34;4906467;29;20489;-75
2023/10/09 22:19:22;;;;;;;5.25;3.00;;;;;;;12.15;76.83;95041.59;4905992;29;20123;-75
2023/10/09 22:21:48;;;;;;;9.35;3.45;;;;;;;12.10;78.50;95043.13;4906868;29;20036;-75
2023/10/09 22:24:17;;;;;;;8.02;2.92;;;;;;;11.99;79.52;95038.34;4904787;29;20032;-75
2023/10/09 22:26:43;;;;;;;8.52;3.08;;;;;;;12.15;79.00;95045.97;4907787;29;20042;-75
2023/10/09 22:29:13;;;;;;;10.15;3.10;;;;;;;12.11;79.78;95037.72;4906126;29;20079;-75
2023/10/09 22:31:46;;;;;;;;;;;;;;;12.14;80.66;95029.56;4907784;29;20836;-76
2023/10/09 22:34:14;;;;;;;8.38;3.75;;;;;;;11.97;80.82;95035.94;4906921;29;20002;-75
2023/10/09 22:36:47;;;;;;;6.88;3.35;;;;;;;11.97;81.18;95037.72;4905919;29;20063;-76
2023/10/09 22:39:32;;;;;;;6.05;2.75;;;;;;;12.00;80.74;95037.38;4906445;29;20036;-76
2023/10/09 22:42:00;;;;;;;7.38;3.10;;;;;;;12.02;80.44;95038.78;4890804;29;20123;-76
2023/10/09 22:44:32;;;;;;;6.50;3.50;;;;;;;12.24;80.63;95042.28;4890494;29;20417;-76
2023/10/09 22:47:00;;;;;;;8.52;3.33;;;;;;;12.19;78.69;95041.22;4905342;29;20040;-76
2023/10/09 22:49:34;;;;;;;6.47;2.85;;;;;;;12.30;78.41;95045.97;4906458;29;20036;-76
2023/10/09 22:52:00;;;;;;;6.70;3.00;;;;;;;12.33;77.31;95036.03;4907412;29;20032;-76
2023/10/09 22:54:35;;;;;;;8.73;3.10;;;;;;;12.49;78.25;95042.84;4903627;29;20490;-77
2023/10/09 22:57:00;;;;;;;6.72;3.08;;;;;;;12.37;78.44;95041.66;4905065;29;20499;-76
2023/10/09 22:59:29;;;;;;;6.43;2.95;;;;;;;12.39;78.00;95037.13;4872429;29;20039;-76
2023/10/09 23:01:55;;;;;;;4.35;2.70;;;;;;;12.28;78.15;95027.16;4921465;29;20059;-76
2023/10/09 23:04:36;;;;;;;7.47;3.20;;;;;;;12.18;79.30;95022.25;4907039;29;20159;-77
2023/10/09 23:07:16;;;;;;;7.55;3.10;;;;;;;12.27;79.14;95030.75;4906496;29;20494;-75
2023/10/09 23:09:53;;;;;;;10.60;3.08;;;;;;;12.35;79.14;95030.66;4905970;29;20036;-76
2023/10/09 23:12:35;;;;;;;8.88;3.20;;;;;;;12.43;79.22;95031.38;4890271;29;20533;-76
2023/10/09 23:15:08;;;;;;;10.48;2.80;;;;;;;12.36;79.40;95029.69;4907751;29;20063;-76
2023/10/09 23:17:44;;;;;;;11.98;2.88;;;;;;;12.26;79.88;95019.56;4889195;29;20050;-76
2023/10/09 23:20:19;;;;;;;15.90;3.30;;;;;;;12.32;79.72;95018.84;4907656;29;20047;-77
2023/10/09 23:22:47;;;;;;;11.23;3.63;;;;;;;12.24;80.18;95029.31;4907392;29;20087;-76
2023/10/09 23:25:18;;;;;;;9.27;2.92;;;;;;;12.37;80.34;95033.88;4905483;29;20032;-77
2023/10/09 23:32:48;;;;;;;;;;;;;;;12.29;80.44;95028.78;4891420;29;20036;-76
2023/10/09 23:35:19;;;;;;;7.07;2.95;;;;;;;12.48;80.11;95023.88;4890908;29;19922;-76
2023/10/09 23:40:53;;;;;;;9.02;2.83;;;;;;;12.42;80.42;95034.97;4818703;29;20129;-76
2023/10/09 23:43:30;;;;;;;4.95;3.00;;;;;;;12.45;81.55;95026.00;4828391;29;20046;-76
2023/10/09 23:45:57;;;;;;;13.23;2.83;;;;;;;12.43;81.03;95030.56;4854252;29;20099;-76
2023/10/09 23:48:26;;;;;;;7.00;3.00;;;;;;;12.31;81.06;95025.03;4887011;29;20030;-76